Charter Quote
Worldwide +1-877-727-2538 Call
Select Language Lang
SAFETY RELIABILITY EXPERIENCE

Sirri Island Airport (OIBS) - Jet Charter Services

AIRPORT INFORMATION
ICAOOIBS
IATASXI
LOCATIONSirri Island, Iran
FACILITY TYPEAIRPORT
Runway Length (ft) Width (ft) Surface Type Elevation (ft)
30/12 8345 175 ASP 41.96721

At Paramount Business Jets you can hire chartered private jets to and from Sirri Island Airport with as little as 4 hours of notice. All flights booked via Paramount Business Jets are operated by certified direct air carriers that meet and exceed the FAA part 135 and 121 protocol or a foreign equivalent safety authority. Furthermore, Paramount Business Jets subscribes to ARGUS for their third party safety checks of operators, aircraft, and crews prior each and every flight to and from Sirri Island Airport and worldwide.

  • Quote a trip using Sirri Island Airport or call us 24/7 - 365 days a year at +1-877-727-2538.
Questions? Call +1-877-727-2538

METAR Weather Data at Sirri Island Airport, OIBS, SXI

STATIONOIBS
OBSERVEDSun Mar 24, 06:00 UTC
NOWSun Mar 24, 06:53 UTC
AGE53 min ago
WINDENE at 24 mph
VISIBILITY8 miles
CONDITIONSmist
METAROIBS 240600Z 06021KT 5000 BR NSC 23/19 Q1012

Call us on +1-877-727-2538 (24 Hours) to Hire a Private Jet or Get a Quick Quote.

Find Airports Near any Location

Processing
...